sensor_id;sensor_type;location;lat;lon;timestamp;temperature;humidity
5492;DHT22;2768;53.540;10.224;2024-03-23T00:57:43;8.50;99.90
5492;DHT22;2768;53.540;10.224;2024-03-23T01:03:35;8.40;99.90
5492;DHT22;2768;53.540;10.224;2024-03-23T01:09:28;8.30;99.90
5492;DHT22;2768;53.540;10.224;2024-03-23T01:15:20;8.30;99.90
5492;DHT22;2768;53.540;10.224;2024-03-23T01:21:12;8.40;99.90
5492;DHT22;2768;53.540;10.224;2024-03-23T01:27:05;8.30;99.90
5492;DHT22;2768;53.540;10.224;2024-03-23T01:33:00;8.20;99.90
5492;DHT22;2768;53.540;10.224;2024-03-23T01:38:53;8.20;99.90
5492;DHT22;2768;53.540;10.224;2024-03-23T01:44:46;8.10;99.90
5492;DHT22;2768;53.540;10.224;2024-03-23T01:50:38;8.20;99.90
5492;DHT22;2768;53.540;10.224;2024-03-23T01:56:34;8.10;99.90
5492;DHT22;2768;53.540;10.224;2024-03-23T02:02:27;8.00;99.90
5492;DHT22;2768;53.540;10.224;2024-03-23T02:08:23;8.00;99.90
5492;DHT22;2768;53.540;10.224;2024-03-23T02:14:16;7.90;99.90
5492;DHT22;2768;53.540;10.224;2024-03-23T02:20:09;8.00;99.90
5492;DHT22;2768;53.540;10.224;2024-03-23T02:26:04;7.90;99.90
5492;DHT22;2768;53.540;10.224;2024-03-23T02:31:56;7.90;99.90
5492;DHT22;2768;53.540;10.224;2024-03-23T02:37:49;8.00;99.90
5492;DHT22;2768;53.540;10.224;2024-03-23T02:43:42;8.00;99.90
5492;DHT22;2768;53.540;10.224;2024-03-23T02:49:34;7.90;99.90
5492;DHT22;2768;53.540;10.224;2024-03-23T02:55:26;7.90;99.90
5492;DHT22;2768;53.540;10.224;2024-03-23T03:01:19;8.00;99.90
5492;DHT22;2768;53.540;10.224;2024-03-23T03:07:11;8.00;99.90
5492;DHT22;2768;53.540;10.224;2024-03-23T03:13:03;8.00;99.90
5492;DHT22;2768;53.540;10.224;2024-03-23T03:18:55;8.00;99.90
5492;DHT22;2768;53.540;10.224;2024-03-23T03:24:48;8.00;99.90
5492;DHT22;2768;53.540;10.224;2024-03-23T03:30:40;8.00;99.90
5492;DHT22;2768;53.540;10.224;2024-03-23T03:36:32;8.00;99.90
5492;DHT22;2768;53.540;10.224;2024-03-23T03:42:25;8.00;99.90
5492;DHT22;2768;53.540;10.224;2024-03-23T03:48:17;7.90;99.90
5492;DHT22;2768;53.540;10.224;2024-03-23T03:54:09;7.90;99.90
5492;DHT22;2768;53.540;10.224;2024-03-23T04:00:01;7.80;99.90
5492;DHT22;2768;53.540;10.224;2024-03-23T04:05:55;7.80;99.90
5492;DHT22;2768;53.540;10.224;2024-03-23T04:11:47;7.70;99.90
5492;DHT22;2768;53.540;10.224;2024-03-23T04:17:40;7.80;99.90
5492;DHT22;2768;53.540;10.224;2024-03-23T04:23:33;7.80;99.90
5492;DHT22;2768;53.540;10.224;2024-03-23T04:29:26;7.70;99.90
5492;DHT22;2768;53.540;10.224;2024-03-23T04:35:18;7.60;99.90
5492;DHT22;2768;53.540;10.224;2024-03-23T04:41:13;7.60;99.90
5492;DHT22;2768;53.540;10.224;2024-03-23T04:47:05;7.60;99.90
5492;DHT22;2768;53.540;10.224;2024-03-23T04:52:58;7.70;99.90
5492;DHT22;2768;53.540;10.224;2024-03-23T04:58:50;7.70;99.90
5492;DHT22;2768;53.540;10.224;2024-03-23T05:04:42;7.60;99.90
5492;DHT22;2768;53.540;10.224;2024-03-23T05:10:34;7.60;99.90
5492;DHT22;2768;53.540;10.224;2024-03-23T05:16:27;7.60;99.90
5492;DHT22;2768;53.540;10.224;2024-03-23T05:22:19;7.60;99.90
5492;DHT22;2768;53.540;10.224;2024-03-23T05:28:11;7.60;99.90
5492;DHT22;2768;53.540;10.224;2024-03-23T05:34:03;7.60;99.90
5492;DHT22;2768;53.540;10.224;2024-03-23T05:39:55;7.60;99.90
5492;DHT22;2768;53.540;10.224;2024-03-23T05:51:47;7.50;99.90
5492;DHT22;2768;53.540;10.224;2024-03-23T05:57:39;7.30;99.90
5492;DHT22;2768;53.540;10.224;2024-03-23T06:03:31;7.50;99.90
5492;DHT22;2768;53.540;10.224;2024-03-23T06:09:23;7.60;99.90
5492;DHT22;2768;53.540;10.224;2024-03-23T06:15:16;7.60;99.90
5492;DHT22;2768;53.540;10.224;2024-03-23T06:21:13;7.50;99.90
5492;DHT22;2768;53.540;10.224;2024-03-23T06:27:06;7.60;99.90
5492;DHT22;2768;53.540;10.224;2024-03-23T06:32:58;7.70;99.90
5492;DHT22;2768;53.540;10.224;2024-03-23T06:38:50;7.80;99.90
5492;DHT22;2768;53.540;10.224;2024-03-23T06:44:43;7.80;99.90
5492;DHT22;2768;53.540;10.224;2024-03-23T06:50:36;7.80;99.90
5492;DHT22;2768;53.540;10.224;2024-03-23T06:56:28;7.80;99.90
5492;DHT22;2768;53.540;10.224;2024-03-23T07:02:20;7.90;99.90
5492;DHT22;2768;53.540;10.224;2024-03-23T07:08:12;7.90;99.90
5492;DHT22;2768;53.540;10.224;2024-03-23T07:14:09;7.80;99.90
5492;DHT22;2768;53.540;10.224;2024-03-23T07:20:03;7.90;99.90
5492;DHT22;2768;53.540;10.224;2024-03-23T07:26:02;7.70;99.90
5492;DHT22;2768;53.540;10.224;2024-03-23T07:31:55;7.70;99.90
5492;DHT22;2768;53.540;10.224;2024-03-23T07:37:47;7.70;99.90
5492;DHT22;2768;53.540;10.224;2024-03-23T07:43:39;7.70;99.90
5492;DHT22;2768;53.540;10.224;2024-03-23T07:49:32;7.70;99.90
5492;DHT22;2768;53.540;10.224;2024-03-23T07:55:24;7.70;99.90
5492;DHT22;2768;53.540;10.224;2024-03-23T08:01:17;7.80;99.90
5492;DHT22;2768;53.540;10.224;2024-03-23T08:07:09;8.00;99.90
5492;DHT22;2768;53.540;10.224;2024-03-23T08:13:01;8.20;99.90
5492;DHT22;2768;53.540;10.224;2024-03-23T08:18:54;8.20;99.90
5492;DHT22;2768;53.540;10.224;2024-03-23T08:24:46;8.20;99.90
5492;DHT22;2768;53.540;10.224;2024-03-23T08:30:38;8.20;96.50
5492;DHT22;2768;53.540;10.224;2024-03-23T08:36:30;8.30;94.40
5492;DHT22;2768;53.540;10.224;2024-03-23T08:42:22;8.50;92.60
5492;DHT22;2768;53.540;10.224;2024-03-23T08:48:15;8.60;59.70
5492;DHT22;2768;53.540;10.224;2024-03-23T08:54:09;8.60;31.90
5492;DHT22;2768;53.540;10.224;2024-03-23T09:00:01;8.70;13.20
5492;DHT22;2768;53.540;10.224;2024-03-23T09:05:53;8.80;19.20
5492;DHT22;2768;53.540;10.224;2024-03-23T09:11:46;8.80;1.00
5492;DHT22;2768;53.540;10.224;2024-03-23T09:17:38;8.80;1.00
5492;DHT22;2768;53.540;10.224;2024-03-23T09:23:30;8.80;1.00
5492;DHT22;2768;53.540;10.224;2024-03-23T09:29:22;9.00;1.00
5492;DHT22;2768;53.540;10.224;2024-03-23T09:35:14;9.40;1.00
5492;DHT22;2768;53.540;10.224;2024-03-23T09:41:07;9.40;1.00
5492;DHT22;2768;53.540;10.224;2024-03-23T09:47:00;9.40;1.00
5492;DHT22;2768;53.540;10.224;2024-03-23T09:52:52;9.40;1.00
5492;DHT22;2768;53.540;10.224;2024-03-23T09:58:45;9.10;1.00
5492;DHT22;2768;53.540;10.224;2024-03-23T10:04:38;9.30;1.00
5492;DHT22;2768;53.540;10.224;2024-03-23T10:10:31;9.60;1.00
5492;DHT22;2768;53.540;10.224;2024-03-23T10:16:23;9.20;1.00
5492;DHT22;2768;53.540;10.224;2024-03-23T10:22:22;9.30;1.00
5492;DHT22;2768;53.540;10.224;2024-03-23T10:28:15;9.70;1.00
5492;DHT22;2768;53.540;10.224;2024-03-23T10:34:07;9.90;1.00
5492;DHT22;2768;53.540;10.224;2024-03-23T10:39:59;11.20;99.90
5492;DHT22;2768;53.540;10.224;2024-03-23T10:45:51;11.40;99.90
5492;DHT22;2768;53.540;10.224;2024-03-23T10:51:44;11.40;99.90
5492;DHT22;2768;53.540;10.224;2024-03-23T11:03:45;10.70;99.90
5492;DHT22;2768;53.540;10.224;2024-03-23T11:09:42;10.10;99.90
5492;DHT22;2768;53.540;10.224;2024-03-23T11:15:36;9.00;1.00
5492;DHT22;2768;53.540;10.224;2024-03-23T11:21:54;8.90;1.00
5492;DHT22;2768;53.540;10.224;2024-03-23T11:27:48;8.50;1.00
5492;DHT22;2768;53.540;10.224;2024-03-23T11:33:40;10.70;1.00
5492;DHT22;2768;53.540;10.224;2024-03-23T11:39:32;12.70;1.00
5492;DHT22;2768;53.540;10.224;2024-03-23T11:45:24;13.50;1.00
5492;DHT22;2768;53.540;10.224;2024-03-23T11:51:17;11.90;99.90
5492;DHT22;2768;53.540;10.224;2024-03-23T11:57:09;12.10;99.90
5492;DHT22;2768;53.540;10.224;2024-03-23T12:03:02;10.80;99.90
5492;DHT22;2768;53.540;10.224;2024-03-23T12:09:05;10.50;99.90
5492;DHT22;2768;53.540;10.224;2024-03-23T12:15:05;10.00;99.90
5492;DHT22;2768;53.540;10.224;2024-03-23T12:20:58;10.90;99.90
5492;DHT22;2768;53.540;10.224;2024-03-23T12:26:50;12.30;99.90
5492;DHT22;2768;53.540;10.224;2024-03-23T12:32:42;11.20;99.90
5492;DHT22;2768;53.540;10.224;2024-03-23T12:38:35;9.90;99.90
5492;DHT22;2768;53.540;10.224;2024-03-23T12:44:27;9.40;99.90
5492;DHT22;2768;53.540;10.224;2024-03-23T12:50:19;9.50;99.90
5492;DHT22;2768;53.540;10.224;2024-03-23T12:56:14;9.30;99.90
5492;DHT22;2768;53.540;10.224;2024-03-23T13:02:06;9.10;99.90
5492;DHT22;2768;53.540;10.224;2024-03-23T13:07:58;8.20;99.90
5492;DHT22;2768;53.540;10.224;2024-03-23T13:13:51;8.10;99.90
5492;DHT22;2768;53.540;10.224;2024-03-23T13:19:43;8.00;99.90
5492;DHT22;2768;53.540;10.224;2024-03-23T13:25:35;7.90;99.90
5492;DHT22;2768;53.540;10.224;2024-03-23T13:31:28;7.60;99.90
5492;DHT22;2768;53.540;10.224;2024-03-23T13:37:20;7.60;1.00
5492;DHT22;2768;53.540;10.224;2024-03-23T13:43:12;7.60;1.00
5492;DHT22;2768;53.540;10.224;2024-03-23T13:49:08;7.80;1.00
5492;DHT22;2768;53.540;10.224;2024-03-23T13:55:04;7.70;1.00
5492;DHT22;2768;53.540;10.224;2024-03-23T14:00:58;8.20;1.00
5492;DHT22;2768;53.540;10.224;2024-03-23T14:06:50;8.60;1.00
5492;DHT22;2768;53.540;10.224;2024-03-23T14:12:42;9.40;1.00
5492;DHT22;2768;53.540;10.224;2024-03-23T14:18:34;9.20;99.90
5492;DHT22;2768;53.540;10.224;2024-03-23T14:24:26;9.60;99.90
5492;DHT22;2768;53.540;10.224;2024-03-23T14:30:19;11.10;99.90
5492;DHT22;2768;53.540;10.224;2024-03-23T14:36:11;11.30;99.90
5492;DHT22;2768;53.540;10.224;2024-03-23T14:42:03;10.70;99.90
5492;DHT22;2768;53.540;10.224;2024-03-23T14:47:57;10.90;99.90
5492;DHT22;2768;53.540;10.224;2024-03-23T14:53:49;12.10;99.90
5492;DHT22;2768;53.540;10.224;2024-03-23T14:59:41;12.30;99.90
5492;DHT22;2768;53.540;10.224;2024-03-23T15:05:34;12.50;99.90
5492;DHT22;2768;53.540;10.224;2024-03-23T15:11:26;11.30;99.90
5492;DHT22;2768;53.540;10.224;2024-03-23T15:17:18;10.50;99.90
5492;DHT22;2768;53.540;10.224;2024-03-23T15:23:10;9.70;99.90
5492;DHT22;2768;53.540;10.224;2024-03-23T15:29:02;9.00;99.90
5492;DHT22;2768;53.540;10.224;2024-03-23T15:35:05;8.50;99.90
5492;DHT22;2768;53.540;10.224;2024-03-23T15:40:58;8.10;99.90
5492;DHT22;2768;53.540;10.224;2024-03-23T15:46:51;8.10;99.90
5492;DHT22;2768;53.540;10.224;2024-03-23T15:52:42;8.70;99.90
5492;DHT22;2768;53.540;10.224;2024-03-23T15:58:35;8.80;99.90
5492;DHT22;2768;53.540;10.224;2024-03-23T16:04:27;8.50;99.90
5492;DHT22;2768;53.540;10.224;2024-03-23T16:10:19;8.50;99.90
5492;DHT22;2768;53.540;10.224;2024-03-23T16:16:11;8.40;99.90
5492;DHT22;2768;53.540;10.224;2024-03-23T16:22:03;8.20;99.90
5492;DHT22;2768;53.540;10.224;2024-03-23T16:27:55;8.20;1.00
5492;DHT22;2768;53.540;10.224;2024-03-23T16:33:48;7.90;1.00
5492;DHT22;2768;53.540;10.224;2024-03-23T16:39:39;7.80;1.00
5492;DHT22;2768;53.540;10.224;2024-03-23T16:45:31;7.80;1.00
5492;DHT22;2768;53.540;10.224;2024-03-23T16:51:24;7.60;1.00
5492;DHT22;2768;53.540;10.224;2024-03-23T16:57:16;7.50;1.00
5492;DHT22;2768;53.540;10.224;2024-03-23T17:03:08;7.50;1.00
5492;DHT22;2768;53.540;10.224;2024-03-23T17:09:00;7.60;1.00
5492;DHT22;2768;53.540;10.224;2024-03-23T17:14:53;7.60;1.00
5492;DHT22;2768;53.540;10.224;2024-03-23T17:20:45;7.60;1.00
5492;DHT22;2768;53.540;10.224;2024-03-23T17:26:37;7.70;1.00
5492;DHT22;2768;53.540;10.224;2024-03-23T17:32:30;7.60;1.00
5492;DHT22;2768;53.540;10.224;2024-03-23T17:38:23;7.60;1.00
5492;DHT22;2768;53.540;10.224;2024-03-23T17:44:15;7.50;1.00
5492;DHT22;2768;53.540;10.224;2024-03-23T17:50:08;7.40;1.00
5492;DHT22;2768;53.540;10.224;2024-03-23T17:56:03;7.40;1.00
5492;DHT22;2768;53.540;10.224;2024-03-23T18:01:57;7.30;1.00
5492;DHT22;2768;53.540;10.224;2024-03-23T18:07:49;7.20;1.00
5492;DHT22;2768;53.540;10.224;2024-03-23T18:13:42;7.20;1.00
5492;DHT22;2768;53.540;10.224;2024-03-23T18:19:34;7.30;1.00
5492;DHT22;2768;53.540;10.224;2024-03-23T18:25:26;7.30;1.00
5492;DHT22;2768;53.540;10.224;2024-03-23T18:31:19;7.10;1.00
5492;DHT22;2768;53.540;10.224;2024-03-23T18:37:11;6.80;1.00
5492;DHT22;2768;53.540;10.224;2024-03-23T18:43:03;6.70;1.00
5492;DHT22;2768;53.540;10.224;2024-03-23T18:48:55;6.40;1.00
5492;DHT22;2768;53.540;10.224;2024-03-23T18:54:47;6.50;1.00
5492;DHT22;2768;53.540;10.224;2024-03-23T19:00:39;6.50;1.00
5492;DHT22;2768;53.540;10.224;2024-03-23T19:06:33;6.50;1.00
5492;DHT22;2768;53.540;10.224;2024-03-23T19:12:25;6.60;1.00
5492;DHT22;2768;53.540;10.224;2024-03-23T19:18:18;6.60;1.00
5492;DHT22;2768;53.540;10.224;2024-03-23T19:24:11;6.50;1.00
5492;DHT22;2768;53.540;10.224;2024-03-23T19:30:03;6.60;1.00
5492;DHT22;2768;53.540;10.224;2024-03-23T19:35:56;6.50;1.00
5492;DHT22;2768;53.540;10.224;2024-03-23T19:41:48;6.60;1.00
5492;DHT22;2768;53.540;10.224;2024-03-23T19:47:40;6.70;1.00
5492;DHT22;2768;53.540;10.224;2024-03-23T19:53:32;6.60;1.00
5492;DHT22;2768;53.540;10.224;2024-03-23T19:59:24;6.60;1.00
5492;DHT22;2768;53.540;10.224;2024-03-23T20:05:16;6.40;1.00
5492;DHT22;2768;53.540;10.224;2024-03-23T20:11:09;6.30;1.00
5492;DHT22;2768;53.540;10.224;2024-03-23T20:17:02;6.40;1.00
5492;DHT22;2768;53.540;10.224;2024-03-23T20:22:54;6.50;1.00
5492;DHT22;2768;53.540;10.224;2024-03-23T20:28:46;6.50;1.00
5492;DHT22;2768;53.540;10.224;2024-03-23T20:34:39;6.50;1.00
5492;DHT22;2768;53.540;10.224;2024-03-23T20:40:30;6.50;1.00
5492;DHT22;2768;53.540;10.224;2024-03-23T20:46:23;6.50;1.00
5492;DHT22;2768;53.540;10.224;2024-03-23T20:52:15;6.50;1.00
5492;DHT22;2768;53.540;10.224;2024-03-23T20:58:07;6.50;1.00
5492;DHT22;2768;53.540;10.224;2024-03-23T21:04:00;6.30;1.00
5492;DHT22;2768;53.540;10.224;2024-03-23T21:09:52;6.20;1.00
5492;DHT22;2768;53.540;10.224;2024-03-23T21:15:52;6.10;1.00
5492;DHT22;2768;53.540;10.224;2024-03-23T21:21:48;6.10;1.00
5492;DHT22;2768;53.540;10.224;2024-03-23T21:27:40;5.90;1.00
5492;DHT22;2768;53.540;10.224;2024-03-23T21:33:33;6.00;1.00
5492;DHT22;2768;53.540;10.224;2024-03-23T21:39:27;5.90;1.00
5492;DHT22;2768;53.540;10.224;2024-03-23T21:45:19;5.90;1.00
5492;DHT22;2768;53.540;10.224;2024-03-23T21:51:15;5.90;1.00
5492;DHT22;2768;53.540;10.224;2024-03-23T21:57:08;5.70;1.00
5492;DHT22;2768;53.540;10.224;2024-03-23T22:03:01;5.70;1.00
5492;DHT22;2768;53.540;10.224;2024-03-23T22:08:53;5.70;1.00
5492;DHT22;2768;53.540;10.224;2024-03-23T22:14:44;5.60;1.00
5492;DHT22;2768;53.540;10.224;2024-03-23T22:20:37;5.70;1.00
5492;DHT22;2768;53.540;10.224;2024-03-23T22:26:30;5.60;1.00
5492;DHT22;2768;53.540;10.224;2024-03-23T22:32:22;5.60;1.00
5492;DHT22;2768;53.540;10.224;2024-03-23T22:38:14;5.50;1.00
5492;DHT22;2768;53.540;10.224;2024-03-23T22:44:06;5.40;1.00
5492;DHT22;2768;53.540;10.224;2024-03-23T22:49:58;5.40;7.90
5492;DHT22;2768;53.540;10.224;2024-03-23T22:55:52;5.40;11.00
5492;DHT22;2768;53.540;10.224;2024-03-23T23:01:44;5.40;9.60
5492;DHT22;2768;53.540;10.224;2024-03-23T23:07:36;5.20;9.50
5492;DHT22;2768;53.540;10.224;2024-03-23T23:13:29;5.20;13.50
5492;DHT22;2768;53.540;10.224;2024-03-23T23:19:21;5.20;3.90
5492;DHT22;2768;53.540;10.224;2024-03-23T23:25:13;5.10;1.00
5492;DHT22;2768;53.540;10.224;2024-03-23T23:31:05;5.00;7.30
5492;DHT22;2768;53.540;10.224;2024-03-23T23:36:57;5.10;17.40
5492;DHT22;2768;53.540;10.224;2024-03-23T23:42:49;5.00;11.00
5492;DHT22;2768;53.540;10.224;2024-03-23T23:48:42;5.10;16.60
5492;DHT22;2768;53.540;10.224;2024-03-23T23:54:34;5.00;8.90
